Time;durP1;ratioP1;P1;durP2;ratioP2;P2;SDS_P1;SDS_P2;PMS_P1;PMS_P2;Temp;Humidity;BMP_temperature;BMP_pressure;BME280_temperature;BME280_humidity;BME280_pressure;Samples;Min_cycle;Max_cycle;Signal;HPM_P1;HPM_P2
2022/01/16 00:00:17;;;;;;;0.63;0.63;;;2.40;99.90;2.20;102186.00;;;;5034218;28;20179;-67
2022/01/16 00:05:30;;;;;;;1.07;1.03;;;2.50;99.90;1.80;102206.00;;;;5035032;28;20182;-67
2022/01/16 00:08:02;;;;;;;3.43;3.23;;;2.40;99.90;1.90;102191.00;;;;5034957;28;20585;-66
2022/01/16 00:10:31;;;;;;;1.53;1.43;;;2.30;99.90;2.00;102179.00;;;;5034681;28;20187;-66
2022/01/16 00:13:05;;;;;;;4.37;2.53;;;2.40;99.90;2.30;102140.00;;;;5018298;28;20198;-67
2022/01/16 00:15:31;;;;;;;3.20;2.97;;;2.50;99.90;2.10;102185.00;;;;5034557;28;20171;-67
2022/01/16 00:20:28;;;;;;;1.13;0.87;;;2.50;99.90;2.30;102174.00;;;;5035756;28;20175;-66
2022/01/16 00:22:55;;;;;;;0.30;0.30;;;2.70;99.90;2.40;102180.00;;;;5034872;28;20173;-67
2022/01/16 00:25:22;;;;;;;3.13;2.83;;;2.60;99.90;2.20;102161.00;;;;5035183;28;20186;-64
2022/01/16 00:27:50;;;;;;;1.63;1.63;;;2.50;99.90;2.90;102173.00;;;;5034217;28;20175;-65
2022/01/16 00:30:18;;;;;;;6.10;5.63;;;2.70;99.90;3.10;102109.00;;;;5035364;28;20210;-65
2022/01/16 00:32:47;;;;;;;0.70;0.70;;;2.90;99.90;2.60;102154.00;;;;5034013;28;20222;-65
2022/01/16 00:35:18;;;;;;;2.30;2.23;;;2.70;99.90;2.70;102171.00;;;;5033890;28;20175;-65
2022/01/16 00:37:46;;;;;;;4.00;2.10;;;2.80;99.90;2.60;102157.00;;;;5033909;28;20181;-65
2022/01/16 00:40:13;;;;;;;2.97;2.50;;;2.70;99.90;2.30;102116.00;;;;5033755;28;20194;-65
2022/01/16 00:42:38;;;;;;;5.53;5.00;;;2.70;99.90;2.30;102171.00;;;;5035507;28;20186;-65
2022/01/16 00:45:05;;;;;;;5.40;2.83;;;2.60;99.90;2.50;102162.00;;;;5034809;28;20616;-65
2022/01/16 00:47:31;;;;;;;10.50;5.70;;;2.70;99.90;2.60;102182.00;;;;5034922;28;20179;-65
2022/01/16 00:49:57;;;;;;;0.40;0.40;;;2.80;99.90;2.90;102172.00;;;;5034894;28;20186;-64
2022/01/16 00:52:25;;;;;;;2.67;1.87;;;2.90;99.90;2.80;102172.00;;;;5035243;28;20286;-65
2022/01/16 00:54:51;;;;;;;0.30;0.30;;;3.00;99.90;2.60;102184.00;;;;5033029;28;20204;-65
2022/01/16 00:57:17;;;;;;;0.40;0.40;;;2.80;99.90;3.00;102147.00;;;;5034692;28;20178;-65
2022/01/16 00:59:48;;;;;;;4.40;3.83;;;2.90;99.90;2.90;102134.00;;;;5033462;28;20253;-65
2022/01/16 01:02:23;;;;;;;0.50;0.50;;;3.10;99.90;3.10;102145.00;;;;5033571;28;20548;-65
2022/01/16 01:04:54;;;;;;;4.90;4.57;;;3.10;99.90;2.60;102154.00;;;;5034956;28;20513;-65
2022/01/16 01:07:28;;;;;;;4.60;4.20;;;3.10;99.90;2.80;102139.00;;;;5034412;28;20268;-65
2022/01/16 01:09:57;;;;;;;1.70;1.67;;;3.00;99.90;2.90;102153.00;;;;5033439;28;20184;-65
2022/01/16 01:12:52;;;;;;;1.47;1.47;;;3.00;99.90;2.50;102182.00;;;;5034524;28;20229;-65
2022/01/16 01:15:26;;;;;;;3.43;3.13;;;2.90;99.90;3.30;102178.00;;;;5033318;28;20590;-66
2022/01/16 01:17:53;;;;;;;8.60;6.50;;;3.20;99.90;2.50;102178.00;;;;5033366;28;20265;-65
2022/01/16 01:20:22;;;;;;;9.43;8.47;;;3.10;99.90;2.80;102167.00;;;;5033351;28;20171;-65
2022/01/16 01:22:51;;;;;;;15.37;12.20;;;3.10;99.90;2.60;102150.00;;;;5033018;28;20178;-66
2022/01/16 01:25:17;;;;;;;3.43;3.17;;;3.00;99.90;2.30;102166.00;;;;5033151;28;20268;-66
2022/01/16 01:27:45;;;;;;;7.47;6.33;;;2.90;99.90;2.30;102187.00;;;;5032766;28;20229;-66
2022/01/16 01:30:14;;;;;;;6.63;5.97;;;2.80;99.90;3.00;102184.00;;;;5032948;28;20175;-66
2022/01/16 01:32:45;;;;;;;7.67;7.07;;;3.00;99.90;2.60;102179.00;;;;5033821;28;20203;-66
2022/01/16 01:35:15;;;;;;;10.27;8.27;;;2.90;99.90;2.50;102145.00;;;;5032884;28;20191;-66
2022/01/16 01:37:42;;;;;;;3.47;3.17;;;2.90;99.90;2.50;102098.00;;;;5033193;28;20175;-66
2022/01/16 01:40:13;;;;;;;7.27;5.00;;;2.90;99.90;2.20;102075.00;;;;5032966;28;20186;-67
2022/01/16 01:42:46;;;;;;;4.53;3.80;;;2.80;99.90;2.50;102084.00;;;;5032277;28;20281;-67
2022/01/16 01:51:21;;;;;;;11.50;7.27;;;2.80;99.90;2.30;102102.00;;;;5032595;28;20213;-66
2022/01/16 01:53:50;;;;;;;5.87;5.10;;;2.90;99.90;2.50;102153.00;;;;5032797;28;20175;-66
2022/01/16 01:56:22;;;;;;;11.50;9.77;;;3.00;99.90;2.70;102158.00;;;;5032147;28;20526;-68
2022/01/16 01:58:50;;;;;;;10.23;7.40;;;3.00;99.90;2.80;102179.00;;;;5033809;28;20187;-66
2022/01/16 02:01:16;;;;;;;2.53;2.43;;;3.10;99.90;2.70;102174.00;;;;5033693;28;20190;-67
2022/01/16 02:06:13;;;;;;;5.00;3.27;;;3.30;99.90;3.90;102188.00;;;;5032045;28;20582;-67
2022/01/16 02:08:41;;;;;;;3.40;2.73;;;3.60;99.90;3.70;102188.00;;;;5016228;28;20194;-67
2022/01/16 02:11:07;;;;;;;8.77;7.90;;;3.70;99.90;3.00;102182.00;;;;5032047;28;20175;-66
2022/01/16 02:13:46;;;;;;;2.27;2.07;;;3.50;99.90;3.60;102149.00;;;;5015655;28;20179;-66
2022/01/16 02:30:48;;;;;;;25.17;15.33;;;3.50;99.90;3.10;102184.00;;;;5032379;28;20241;-67
2022/01/16 02:35:44;;;;;;;2.90;2.57;;;3.60;99.90;2.90;102191.00;;;;5032382;28;20170;-66
2022/01/16 02:38:11;;;;;;;0.33;0.33;;;3.40;99.90;3.00;102194.00;;;;5032158;28;20229;-67
2022/01/16 02:40:47;;;;;;;4.00;3.90;;;3.40;99.90;2.80;102176.00;;;;5031860;28;20179;-66
2022/01/16 02:43:18;;;;;;;9.30;8.43;;;3.30;99.90;2.80;102196.00;;;;5032097;28;20189;-66
2022/01/16 02:45:48;;;;;;;22.50;14.33;;;3.30;99.90;3.10;102176.00;;;;5032054;28;20540;-66
2022/01/16 02:48:17;;;;;;;3.50;2.57;;;3.40;99.90;3.20;102172.00;;;;5031892;28;20717;-67
2022/01/16 02:50:46;;;;;;;8.63;5.20;;;3.50;99.90;3.60;102163.00;;;;5033224;28;20175;-67
2022/01/16 02:53:20;;;;;;;1.23;1.13;;;3.60;99.90;3.80;102167.00;;;;5015451;28;20206;-67
2022/01/16 02:55:46;;;;;;;4.90;4.13;;;3.80;99.90;3.30;102162.00;;;;5031810;28;20224;-67
2022/01/16 02:58:14;;;;;;;1.37;1.23;;;3.80;99.90;3.30;102168.00;;;;5032870;28;20174;-67
2022/01/16 03:00:43;;;;;;;23.67;15.77;;;3.60;99.90;3.40;102154.00;;;;5033508;28;20187;-67
2022/01/16 03:03:09;;;;;;;8.37;6.20;;;3.60;99.90;2.90;102155.00;;;;5032837;28;20233;-67
2022/01/16 03:05:35;;;;;;;10.03;5.73;;;3.50;99.90;2.90;102156.00;;;;5032021;28;20175;-68
2022/01/16 03:08:04;;;;;;;9.23;7.47;;;3.50;99.90;3.10;102154.00;;;;5032723;28;20183;-67
2022/01/16 03:13:20;;;;;;;5.40;4.63;;;3.60;99.90;3.10;102133.00;;;;5032690;28;20260;-66
2022/01/16 03:15:47;;;;;;;18.93;9.27;;;3.50;99.90;3.20;102132.00;;;;5031733;28;20175;-67
2022/01/16 03:23:31;;;;;;;5.33;4.33;;;3.50;99.90;3.10;102134.00;;;;5036162;28;20233;-67
2022/01/16 03:26:00;;;;;;;14.83;12.80;;;3.60;99.90;3.20;102119.00;;;;5035405;28;20187;-66
2022/01/16 03:28:29;;;;;;;7.83;5.30;;;3.60;99.90;3.50;102079.00;;;;5035150;28;20238;-66
2022/01/16 03:30:56;;;;;;;14.83;13.33;;;3.70;99.90;3.40;102119.00;;;;5018892;28;20189;-67
2022/01/16 03:33:27;;;;;;;7.87;7.17;;;3.80;99.90;3.20;102126.00;;;;5035404;28;20652;-67
2022/01/16 03:35:54;;;;;;;29.57;16.73;;;3.70;99.90;3.40;102102.00;;;;5019117;28;20278;-67
2022/01/16 03:38:20;;;;;;;8.60;6.00;;;3.80;99.90;3.40;102105.00;;;;5035030;28;20182;-66
2022/01/16 03:40:51;;;;;;;21.67;12.93;;;3.80;99.90;3.10;102104.00;;;;5018487;28;20182;-66
2022/01/16 03:43:20;;;;;;;8.60;7.73;;;3.70;99.90;3.20;102105.00;;;;5018838;28;20211;-68
2022/01/16 03:45:47;;;;;;;0.97;0.97;;;3.70;99.90;3.20;102120.00;;;;5035245;28;20228;-67
2022/01/16 03:48:24;;;;;;;10.83;9.73;;;3.70;99.90;3.60;102107.00;;;;5035328;28;20175;-65
2022/01/16 03:50:52;;;;;;;1.03;1.03;;;3.80;99.90;3.60;102108.00;;;;5035114;28;20185;-66
2022/01/16 03:53:20;;;;;;;10.00;8.23;;;3.80;99.90;4.10;102112.00;;;;5034757;28;20233;-67
2022/01/16 03:55:50;;;;;;;18.73;12.13;;;4.10;99.90;3.50;102113.00;;;;5036155;28;20163;-66
2022/01/16 03:58:16;;;;;;;9.80;7.43;;;3.90;99.90;3.10;102134.00;;;;5018606;28;20274;-67
2022/01/16 04:00:44;;;;;;;10.17;6.17;;;3.70;99.90;3.00;102084.00;;;;5035038;28;20554;-67
2022/01/16 04:03:13;;;;;;;4.37;3.97;;;3.60;99.90;3.10;102128.00;;;;5036259;28;20166;-67
2022/01/16 04:05:41;;;;;;;2.60;2.43;;;3.60;99.90;2.90;102141.00;;;;5034778;28;20252;-67
2022/01/16 04:08:07;;;;;;;16.17;11.47;;;3.60;99.90;2.90;102143.00;;;;5018506;28;20175;-67
2022/01/16 04:10:37;;;;;;;16.70;7.70;;;3.50;99.90;3.00;102104.00;;;;5018599;28;20193;-67
2022/01/16 04:13:04;;;;;;;16.27;12.70;;;3.60;99.90;2.90;102138.00;;;;5035837;28;20207;-67
2022/01/16 04:15:33;;;;;;;2.40;2.30;;;3.50;99.90;3.40;102145.00;;;;5034779;28;20179;-67
2022/01/16 04:18:05;;;;;;;4.03;3.83;;;3.60;99.90;3.00;102136.00;;;;5018593;28;20182;-67
2022/01/16 04:20:33;;;;;;;2.30;2.20;;;3.60;99.90;3.20;102149.00;;;;5018025;28;20533;-66
2022/01/16 04:23:10;;;;;;;5.33;3.83;;;3.60;99.90;3.20;102154.00;;;;5034121;28;20630;-67
2022/01/16 04:25:54;;;;;;;24.43;14.00;;;3.70;99.90;3.10;102159.00;;;;5018233;28;20213;-65
2022/01/16 04:28:25;;;;;;;8.27;5.63;;;3.60;99.90;3.20;102108.00;;;;5034449;28;20175;-65
2022/01/16 04:30:54;;;;;;;8.97;5.47;;;3.50;99.90;2.70;102157.00;;;;5034189;28;20648;-65
2022/01/16 04:33:26;;;;;;;22.97;12.53;;;3.40;99.90;3.00;102118.00;;;;5035497;28;20190;-65
2022/01/16 04:35:52;;;;;;;8.80;5.10;;;3.40;99.90;2.70;102138.00;;;;5033995;28;20167;-65
2022/01/16 04:38:18;;;;;;;10.97;8.40;;;3.30;99.90;2.70;102161.00;;;;5017626;28;20193;-65
2022/01/16 04:43:47;;;;;;;4.77;3.23;;;3.20;99.90;2.50;102165.00;;;;5034303;28;20576;-65
2022/01/16 04:43:48;;;;;;;17.73;11.53;;;3.10;99.90;2.50;102169.00;;;;5035026;28;20199;-66
2022/01/16 04:46:34;;;;;;;5.03;4.53;;;3.10;99.90;2.60;102163.00;;;;5034239;28;20178;-66
2022/01/16 04:51:51;;;;;;;4.13;3.73;;;3.10;99.90;2.60;102177.00;;;;5033613;28;20693;-65
2022/01/16 04:54:17;;;;;;;11.07;8.70;;;3.10;99.90;2.60;102169.00;;;;5034990;28;20242;-65
2022/01/16 04:56:43;;;;;;;16.17;11.10;;;3.10;99.90;2.70;102164.00;;;;5033792;28;20252;-65
2022/01/16 04:59:09;;;;;;;21.40;14.07;;;3.20;99.90;2.90;102175.00;;;;5035000;28;20185;-65
2022/01/16 05:01:35;;;;;;;0.40;0.40;;;3.20;99.90;3.30;102150.00;;;;5033697;28;20551;-65
2022/01/16 05:04:01;;;;;;;0.30;0.30;;;3.30;99.90;3.10;102152.00;;;;5033598;28;20203;-65
2022/01/16 05:06:26;;;;;;;4.73;4.30;;;3.30;99.90;3.70;102159.00;;;;5034343;28;20213;-65
2022/01/16 05:08:52;;;;;;;4.73;2.50;;;3.60;99.90;3.00;102154.00;;;;5033222;28;20598;-65
2022/01/16 05:11:25;;;;;;;9.90;6.57;;;3.40;99.90;2.60;102152.00;;;;5034613;28;20217;-65
2022/01/16 05:16:35;;;;;;;7.03;4.50;;;3.10;99.90;2.70;102174.00;;;;5033228;28;20198;-65
2022/01/16 05:19:10;;;;;;;19.70;12.57;;;3.10;99.90;2.70;102174.00;;;;5033178;28;20174;-65
2022/01/16 05:21:42;;;;;;;5.87;5.30;;;3.10;99.90;2.40;102176.00;;;;5034677;28;20622;-65
2022/01/16 05:24:10;;;;;;;29.90;16.47;;;3.10;99.90;2.70;102188.00;;;;5033244;28;20543;-66
2022/01/16 05:26:40;;;;;;;13.33;10.40;;;3.10;99.90;2.50;102184.00;;;;5033107;28;20273;-67
2022/01/16 05:29:06;;;;;;;3.07;2.87;;;3.10;99.90;2.80;102177.00;;;;5032998;28;20170;-67
2022/01/16 05:31:32;;;;;;;26.53;16.30;;;3.10;99.90;2.70;102191.00;;;;5033980;28;20233;-67
2022/01/16 05:33:58;;;;;;;5.20;4.77;;;3.20;99.90;2.70;102151.00;;;;5016440;28;20186;-66
2022/01/16 05:36:24;;;;;;;15.93;10.03;;;3.20;99.90;2.60;102175.00;;;;5033213;28;20179;-65
2022/01/16 05:38:54;;;;;;;0.60;0.60;;;3.20;99.90;3.00;102183.00;;;;5032946;28;20183;-66
2022/01/16 05:41:21;;;;;;;8.80;7.20;;;3.20;99.90;3.10;102171.00;;;;5033375;28;20536;-65
2022/01/16 05:43:49;;;;;;;12.93;6.67;;;3.30;99.90;2.90;102177.00;;;;5034059;28;20538;-66
2022/01/16 05:46:16;;;;;;;1.77;1.67;;;3.30;99.90;2.70;102194.00;;;;5033819;28;20655;-66
2022/01/16 05:48:42;;;;;;;5.33;4.57;;;3.20;99.90;2.70;102195.00;;;;5032436;28;20661;-65
2022/01/16 05:51:08;;;;;;;0.20;0.20;;;3.30;99.90;2.80;102201.00;;;;5034336;28;20187;-65
2022/01/16 05:53:36;;;;;;;1.73;1.63;;;3.40;99.90;2.70;102204.00;;;;5032583;28;20872;-65
2022/01/16 05:56:02;;;;;;;1.93;1.93;;;3.30;99.90;2.80;102202.00;;;;5032882;28;20278;-66
2022/01/16 05:58:39;;;;;;;14.23;5.47;;;3.20;99.90;2.80;102154.00;;;;5033751;28;20257;-65
2022/01/16 06:01:05;;;;;;;22.25;13.40;;;3.30;99.90;2.80;102190.00;;;;5015660;28;20421;-64
2022/01/16 06:03:31;;;;;;;4.77;2.20;;;3.20;99.90;3.10;102200.00;;;;5032358;28;20171;-64
2022/01/16 06:05:57;;;;;;;12.27;6.20;;;3.40;99.90;3.20;102198.00;;;;5033618;28;20179;-65
2022/01/16 06:08:23;;;;;;;3.10;2.90;;;3.50;99.90;3.30;102191.00;;;;5033814;28;20178;-65
2022/01/16 06:10:49;;;;;;;10.63;5.47;;;3.50;99.90;2.90;102195.00;;;;5033586;28;20191;-65
2022/01/16 06:13:15;;;;;;;4.77;3.57;;;3.30;99.90;3.00;102153.00;;;;5032160;28;20213;-65
2022/01/16 06:15:41;;;;;;;9.63;6.40;;;3.50;99.90;3.10;102187.00;;;;5033646;28;20177;-65
2022/01/16 06:18:07;;;;;;;3.13;0.83;;;3.50;99.90;3.20;102205.00;;;;5032164;28;20273;-65
2022/01/16 06:20:36;;;;;;;12.20;6.73;;;3.40;99.90;3.40;102203.00;;;;5015882;28;20190;-65
2022/01/16 06:23:02;;;;;;;8.43;7.07;;;3.70;99.90;3.70;102206.00;;;;5032195;28;20209;-65
2022/01/16 06:25:28;;;;;;;2.87;2.67;;;3.70;99.90;3.80;102176.00;;;;5032137;28;20261;-65
2022/01/16 06:27:54;;;;;;;26.83;12.90;;;3.80;99.90;3.40;102172.00;;;;5032014;28;20630;-66
2022/01/16 06:30:20;;;;;;;30.03;14.73;;;3.70;99.90;3.40;102211.00;;;;5033614;28;20209;-65
2022/01/16 06:32:47;;;;;;;5.30;3.60;;;3.70;99.90;3.40;102163.00;;;;5033357;28;20210;-65
2022/01/16 06:35:16;;;;;;;4.07;1.77;;;3.70;99.90;3.00;102220.00;;;;5032385;28;20213;-64
2022/01/16 06:37:51;;;;;;;22.40;13.67;;;3.60;99.90;3.00;102230.00;;;;5033158;28;20626;-64
2022/01/16 06:40:27;;;;;;;6.73;4.00;;;3.60;99.90;3.10;102199.00;;;;5033407;28;20178;-64
2022/01/16 06:42:53;;;;;;;4.97;4.53;;;3.50;99.90;3.40;102225.00;;;;5033521;28;20178;-65
2022/01/16 06:45:19;;;;;;;28.23;16.87;;;3.60;99.90;3.60;102235.00;;;;5033491;28;20532;-65
2022/01/16 06:47:48;;;;;;;6.73;5.83;;;3.70;99.90;3.20;102232.00;;;;5032945;28;20622;-65
2022/01/16 06:50:14;;;;;;;9.00;3.77;;;3.80;99.90;3.40;102243.00;;;;5032114;28;20182;-65
2022/01/16 06:52:40;;;;;;;3.30;3.10;;;3.70;99.90;3.20;102233.00;;;;5032954;28;20199;-64
2022/01/16 06:55:06;;;;;;;1.97;1.87;;;3.70;99.90;3.60;102247.00;;;;5035784;28;20695;-65
2022/01/16 06:57:35;;;;;;;0.63;0.63;;;3.80;99.90;3.60;102245.00;;;;5036100;28;20265;-65
2022/01/16 07:00:03;;;;;;;0.40;0.40;;;3.90;99.90;3.50;102204.00;;;;5036024;28;20676;-65
2022/01/16 07:02:28;;;;;;;3.60;3.40;;;3.90;99.90;3.60;102238.00;;;;5019219;28;20199;-65
2022/01/16 07:04:57;;;;;;;4.63;4.23;;;3.90;99.90;4.30;102244.00;;;;5036797;28;20171;-65
2022/01/16 07:07:25;;;;;;;2.27;2.17;;;4.20;99.90;3.90;102239.00;;;;5037239;28;20537;-65
2022/01/16 07:09:51;;;;;;;2.83;2.20;;;4.20;99.90;4.50;102209.00;;;;5035508;28;20185;-65
2022/01/16 07:12:17;;;;;;;22.63;12.00;;;4.30;99.90;4.50;102259.00;;;;5036873;28;20198;-65
2022/01/16 07:14:47;;;;;;;9.00;5.70;;;4.50;99.90;3.90;102239.00;;;;5035574;28;20175;-65
2022/01/16 07:17:13;;;;;;;4.40;3.40;;;4.20;99.90;3.70;102281.00;;;;5036595;28;20214;-65
2022/01/16 07:19:39;;;;;;;11.40;4.63;;;4.00;99.90;3.50;102280.00;;;;5036673;28;20186;-65
2022/01/16 07:22:06;;;;;;;1.13;0.93;;;4.00;99.90;3.40;102287.00;;;;5035463;28;20192;-64
2022/01/16 07:24:35;;;;;;;20.60;11.70;;;4.00;99.90;3.70;102277.00;;;;5036514;28;20194;-65
2022/01/16 07:27:08;;;;;;;3.03;1.67;;;4.00;99.90;4.00;102287.00;;;;5035463;28;20218;-65
2022/01/16 07:29:34;;;;;;;3.60;3.40;;;4.10;99.90;4.10;102293.00;;;;5034913;28;20175;-65
2022/01/16 07:32:03;;;;;;;0.30;0.30;;;4.20;99.90;4.40;102297.00;;;;5036469;28;20561;-65
2022/01/16 07:34:29;;;;;;;0.27;0.27;;;4.40;99.90;4.80;102308.00;;;;5036445;28;20253;-65
2022/01/16 07:36:58;;;;;;;6.50;5.47;;;4.60;99.90;4.40;102251.00;;;;5036259;28;20179;-65
2022/01/16 07:39:29;;;;;;;5.30;2.10;;;4.60;99.90;4.80;102272.00;;;;5035301;28;20218;-65
2022/01/16 07:41:58;;;;;;;0.93;0.93;;;4.60;99.90;4.50;102280.00;;;;5036486;28;20233;-65
2022/01/16 07:44:24;;;;;;;18.97;3.13;;;4.70;99.90;4.30;102286.00;;;;5027402;28;20193;-65
2022/01/16 07:46:52;;;;;;;2.70;1.40;;;4.50;99.90;4.50;102289.00;;;;5016335;28;20690;-65
2022/01/16 07:49:21;;;;;;;1.23;1.23;;;4.60;99.90;4.30;102273.00;;;;5016260;28;20187;-65
2022/01/16 07:51:47;;;;;;;8.70;3.33;;;4.50;99.90;4.60;102295.00;;;;5016451;28;20296;-65
2022/01/16 07:54:13;;;;;;;8.50;5.10;;;4.70;99.90;4.70;102293.00;;;;5016295;28;20280;-65
2022/01/16 07:56:39;;;;;;;1.40;1.33;;;4.70;99.90;4.70;102265.00;;;;5015001;28;20184;-66
2022/01/16 07:59:05;;;;;;;0.63;0.63;;;4.70;99.90;4.90;102306.00;;;;5015043;28;20549;-66
2022/01/16 08:01:31;;;;;;;0.30;0.30;;;4.80;99.90;4.60;102305.00;;;;5016125;28;20185;-66
2022/01/16 08:03:57;;;;;;;0.73;0.73;;;4.80;99.90;4.40;102316.00;;;;5015535;28;20181;-66
2022/01/16 08:06:25;;;;;;;10.27;7.00;;;4.80;99.90;4.60;102303.00;;;;5014824;28;20184;-66
2022/01/16 08:08:54;;;;;;;9.50;6.30;;;4.80;99.90;4.50;102307.00;;;;5016507;28;20176;-66
2022/01/16 08:11:19;;;;;;;0.93;0.83;;;4.80;99.90;4.20;102314.00;;;;5014686;28;20187;-66
2022/01/16 08:13:45;;;;;;;8.07;3.97;;;4.70;99.90;4.30;102310.00;;;;5014480;28;20631;-65
2022/01/16 08:16:14;;;;;;;1.63;1.53;;;4.70;99.90;4.30;102291.00;;;;5014601;28;20180;-65
2022/01/16 08:18:41;;;;;;;1.10;1.03;;;4.60;99.90;4.50;102299.00;;;;5016008;28;20183;-65
2022/01/16 08:21:07;;;;;;;1.13;0.93;;;4.70;99.90;4.80;102298.00;;;;5014448;28;20267;-64
2022/01/16 08:23:33;;;;;;;3.97;3.60;;;4.90;99.90;4.50;102286.00;;;;5015908;28;20339;-64
2022/01/16 08:26:00;;;;;;;3.80;3.60;;;4.70;99.90;4.90;102291.00;;;;5014462;28;20181;-64
2022/01/16 08:28:26;;;;;;;0.83;0.83;;;4.80;99.90;4.50;102289.00;;;;5014342;28;20184;-64
2022/01/16 08:30:52;;;;;;;0.57;0.57;;;4.80;99.90;5.20;102277.00;;;;5015340;28;20177;-64
2022/01/16 08:33:18;;;;;;;7.83;3.80;;;5.00;99.90;4.40;102279.00;;;;5030936;28;20226;-65
2022/01/16 08:35:47;;;;;;;0.50;0.50;;;4.90;99.90;4.80;102282.00;;;;5015240;28;20189;-64
2022/01/16 08:38:13;;;;;;;3.20;2.30;;;4.80;99.90;4.70;102295.00;;;;5014448;28;20191;-64
2022/01/16 08:40:41;;;;;;;0.30;0.30;;;4.90;99.90;5.10;102302.00;;;;5014081;28;20556;-64
2022/01/16 08:43:10;;;;;;;14.53;8.97;;;5.00;99.90;4.30;102314.00;;;;5014064;28;20190;-64
2022/01/16 08:45:39;;;;;;;6.00;5.70;;;4.80;99.90;4.40;102265.00;;;;5014945;28;20683;-65
2022/01/16 08:48:07;;;;;;;0.20;0.20;;;4.70;99.90;5.10;102318.00;;;;5014093;28;20184;-65
2022/01/16 08:50:40;;;;;;;3.33;3.17;;;5.00;99.90;5.40;102317.00;;;;5015050;28;20593;-65
2022/01/16 08:53:07;;;;;;;12.83;7.63;;;5.20;99.90;5.20;102320.00;;;;5013909;28;20223;-65
2022/01/16 08:55:35;;;;;;;0.33;0.33;;;5.30;99.90;5.30;102315.00;;;;5013791;28;20640;-65
2022/01/16 08:58:02;;;;;;;1.07;1.03;;;5.30;99.90;5.40;102314.00;;;;5013586;28;20185;-65
2022/01/16 09:00:28;;;;;;;4.70;4.30;;;5.40;99.90;5.10;102312.00;;;;5015877;28;20577;-65
2022/01/16 09:02:57;;;;;;;2.30;1.80;;;5.30;99.90;5.20;102321.00;;;;5039145;28;20193;-65
2022/01/16 09:05:44;;;;;;;4.43;4.23;;;5.30;99.90;5.50;102282.00;;;;5030224;28;20172;-66
2022/01/16 09:08:11;;;;;;;4.57;3.40;;;5.50;99.90;5.20;102318.00;;;;5034781;28;20188;-66
2022/01/16 09:10:37;;;;;;;2.20;1.50;;;5.50;99.90;4.70;102319.00;;;;5016946;28;20184;-65
2022/01/16 09:13:08;;;;;;;5.03;3.40;;;5.20;99.90;5.30;102325.00;;;;5033182;28;20235;-65
2022/01/16 09:15:37;;;;;;;1.60;1.50;;;5.40;99.90;5.30;102318.00;;;;5034072;28;20161;-65
2022/01/16 09:18:03;;;;;;;3.53;3.33;;;5.40;99.90;5.10;102322.00;;;;5033257;28;20529;-64
2022/01/16 09:20:32;;;;;;;1.63;1.60;;;5.30;99.90;5.50;102327.00;;;;5033265;28;20192;-65
2022/01/16 09:22:58;;;;;;;0.63;0.63;;;5.40;99.90;5.00;102329.00;;;;5034049;28;20180;-64
2022/01/16 09:25:33;;;;;;;2.00;1.90;;;5.30;99.90;5.10;102338.00;;;;5016660;28;20183;-64
2022/01/16 09:28:10;;;;;;;4.63;4.03;;;5.30;99.90;4.80;102299.00;;;;5032975;28;20191;-67
2022/01/16 09:30:39;;;;;;;28.40;12.33;;;5.20;99.90;4.40;102344.00;;;;5031911;28;20197;-68
2022/01/16 09:33:07;;;;;;;0.23;0.23;;;4.90;99.90;5.10;102346.00;;;;5023872;28;20229;-67
2022/01/16 09:35:45;;;;;;;1.27;1.17;;;5.00;99.90;5.20;102344.00;;;;5034034;28;20522;-68
2022/01/16 09:38:21;;;;;;;2.73;2.53;;;5.20;99.90;5.40;102342.00;;;;5032872;28;20176;-68
2022/01/16 09:40:51;;;;;;;0.40;0.40;;;5.40;99.90;5.80;102345.00;;;;5033055;28;20178;-68
2022/01/16 09:43:26;;;;;;;2.90;2.80;;;5.60;99.90;5.40;102331.00;;;;5033002;28;20164;-69
2022/01/16 09:45:57;;;;;;;3.80;3.50;;;5.50;99.90;5.50;102332.00;;;;5032548;28;20172;-68
2022/01/16 09:48:29;;;;;;;5.80;5.20;;;5.50;99.90;5.50;102307.00;;;;5032506;28;20686;-68
2022/01/16 09:50:57;;;;;;;0.57;0.57;;;5.50;99.90;5.30;102345.00;;;;5032505;28;20188;-67
2022/01/16 09:53:32;;;;;;;0.80;0.80;;;5.40;99.90;5.80;102363.00;;;;5032411;28;20254;-68
2022/01/16 09:56:01;;;;;;;0.93;0.83;;;5.60;99.90;5.20;102308.00;;;;5032358;28;20187;-67
2022/01/16 09:58:30;;;;;;;2.93;2.33;;;5.50;99.90;5.10;102353.00;;;;5032139;28;20195;-67
2022/01/16 10:01:05;;;;;;;8.87;5.87;;;5.40;99.90;5.40;102360.00;;;;5032526;28;20213;-67
2022/01/16 10:03:46;;;;;;;0.30;0.30;;;5.40;99.90;5.90;102369.00;;;;5032643;28;20248;-66
2022/01/16 10:06:21;;;;;;;0.90;0.90;;;5.70;99.90;6.10;102370.00;;;;5016148;28;20271;-66
2022/01/16 10:08:54;;;;;;;2.67;2.47;;;5.90;99.90;5.60;102371.00;;;;5025919;28;20278;-69
2022/01/16 10:11:41;;;;;;;3.43;3.13;;;5.80;99.90;6.10;102341.00;;;;5016626;28;20196;-68
2022/01/16 10:14:21;;;;;;;0.43;0.43;;;5.90;99.90;6.50;102366.00;;;;4997109;28;20184;-64
2022/01/16 10:16:48;;;;;;;3.77;3.23;;;6.10;99.90;5.50;102366.00;;;;5012501;28;20192;-66
2022/01/16 10:19:27;;;;;;;3.10;2.63;;;5.80;99.90;5.40;102378.00;;;;5012483;28;20169;-66
2022/01/16 10:33:25;;;;;;;4.23;3.30;;;4.90;99.90;4.50;102391.00;;;;5111239;27;21127;-66
2022/01/16 10:35:56;;;;;;;14.43;6.77;;;5.00;99.90;4.60;102365.00;;;;5073181;28;20184;-65
2022/01/16 10:38:31;;;;;;;3.00;2.50;;;5.00;99.90;4.60;102399.00;;;;5090662;28;20206;-67
2022/01/16 10:41:05;;;;;;;2.00;1.90;;;5.00;99.90;4.80;102396.00;;;;5072651;28;20168;-66
2022/01/16 10:43:44;;;;;;;3.03;1.43;;;5.10;99.90;4.70;102366.00;;;;5055824;28;20240;-66
2022/01/16 10:46:13;;;;;;;1.40;1.40;;;5.00;99.90;5.40;102365.00;;;;5090643;28;20175;-65
2022/01/16 10:48:41;;;;;;;1.70;1.37;;;5.30;99.90;5.70;102410.00;;;;5090414;28;20273;-65
2022/01/16 10:51:21;;;;;;;3.67;3.37;;;5.60;99.90;5.80;102376.00;;;;5071701;28;20224;-64
2022/01/16 10:53:50;;;;;;;4.53;4.10;;;5.70;99.90;6.10;102375.00;;;;5072366;28;20291;-65
2022/01/16 10:56:27;;;;;;;2.10;1.57;;;5.90;99.90;5.60;102401.00;;;;5090578;28;20217;-68
2022/01/16 10:59:24;;;;;;;6.07;5.40;;;5.70;99.90;4.90;102411.00;;;;5088916;28;20204;-67
2022/01/16 11:02:07;;;;;;;1.83;1.73;;;5.50;99.90;5.60;102416.00;;;;5072418;28;20288;-65
2022/01/16 11:04:35;;;;;;;4.33;3.23;;;5.60;99.90;5.20;102403.00;;;;5071935;28;20205;-64
2022/01/16 11:07:03;;;;;;;2.43;1.50;;;5.60;99.90;5.30;102405.00;;;;5048780;28;20186;-64
2022/01/16 11:09:31;;;;;;;6.23;2.77;;;5.50;99.90;5.10;102401.00;;;;5035906;28;20221;-66
2022/01/16 11:12:02;;;;;;;9.20;3.00;;;5.50;99.90;6.00;102421.00;;;;5052209;28;20211;-63
2022/01/16 11:14:29;;;;;;;4.00;2.77;;;5.70;99.90;5.10;102371.00;;;;5084840;28;20190;-64
2022/01/16 11:17:51;;;;;;;2.20;2.10;;;5.60;99.90;5.00;102414.00;;;;5072056;28;20190;-65
2022/01/16 11:20:33;;;;;;;4.20;3.80;;;5.60;99.90;4.70;102358.00;;;;5072345;28;20656;-65
2022/01/16 11:23:27;;;;;;;2.53;2.43;;;5.20;99.90;5.40;102401.00;;;;5056463;28;20190;-65
2022/01/16 11:26:06;;;;;;;18.27;13.17;;;5.40;99.90;5.20;102432.00;;;;5089695;28;20175;-66
2022/01/16 11:28:38;;;;;;;3.40;1.70;;;5.50;99.90;5.00;102429.00;;;;5090147;28;20181;-67
2022/01/16 11:31:10;;;;;;;19.13;12.33;;;5.40;99.90;5.20;102427.00;;;;5071811;28;20160;-66
2022/01/16 11:33:42;;;;;;;12.73;9.60;;;5.50;99.90;4.60;102420.00;;;;5055360;28;20542;-67
2022/01/16 11:36:21;;;;;;;21.73;12.67;;;5.20;99.90;4.60;102428.00;;;;5071306;28;20227;-66
2022/01/16 11:39:01;;;;;;;11.30;6.13;;;5.10;99.90;5.00;102434.00;;;;5071399;28;20185;-66
2022/01/16 11:41:51;;;;;;;3.17;2.97;;;5.20;99.90;5.40;102430.00;;;;5054788;28;20198;-67
2022/01/16 11:44:34;;;;;;;3.70;2.50;;;5.50;99.90;6.00;102393.00;;;;5057853;28;20187;-68
2022/01/16 11:47:03;;;;;;;3.40;3.13;;;5.80;99.90;5.10;102427.00;;;;5050601;28;20184;-67
2022/01/16 11:49:32;;;;;;;2.27;2.17;;;5.60;99.90;4.90;102429.00;;;;5038071;28;20188;-66
2022/01/16 11:52:10;;;;;;;10.30;6.93;;;5.30;99.90;4.50;102420.00;;;;5064397;28;20234;-67
2022/01/16 11:54:50;;;;;;;11.57;8.13;;;5.10;99.90;4.50;102436.00;;;;5058048;28;20183;-66
2022/01/16 11:57:29;;;;;;;11.07;10.10;;;5.10;99.90;4.70;102447.00;;;;5075458;28;20634;-66
2022/01/16 12:00:12;;;;;;;9.10;6.33;;;5.00;99.90;5.40;102436.00;;;;5075940;28;20166;-66
2022/01/16 12:02:53;;;;;;;1.87;1.70;;;5.20;99.90;5.30;102424.00;;;;5041069;28;20245;-66
2022/01/16 12:05:28;;;;;;;7.00;5.70;;;5.40;99.90;5.60;102384.00;;;;5058083;28;20274;-67
2022/01/16 12:08:36;;;;;;;6.43;3.83;;;5.60;99.90;5.00;102426.00;;;;5075543;28;20230;-66